createdAt,value
2023-02-11T07:26:34.560Z,100651.38
2023-02-11T07:29:02.693Z,100663.78
2023-02-11T07:31:31.668Z,100650.78
2023-02-11T07:34:02.271Z,100652.16
2023-02-11T07:36:31.983Z,100649.31
2023-02-11T07:39:00.321Z,100638.66
2023-02-11T07:41:28.177Z,100641.13
2023-02-11T07:43:56.105Z,100636.06
2023-02-11T07:46:27.127Z,100641.50
2023-02-11T07:48:55.739Z,100621.34
2023-02-11T07:51:26.266Z,100632.09
2023-02-11T07:53:55.448Z,100625.63
2023-02-11T07:56:24.359Z,100612.44
2023-02-11T07:58:52.080Z,100618.09
2023-02-11T08:01:26.041Z,100604.44
2023-02-11T08:03:54.247Z,100613.88
2023-02-11T08:06:24.592Z,100610.38
2023-02-11T08:08:53.219Z,100595.16
2023-02-11T08:11:28.753Z,100600.50
2023-02-11T08:13:56.973Z,100596.50
2023-02-11T08:16:34.216Z,100596.06
2023-02-11T08:19:06.605Z,100598.63
2023-02-11T08:21:34.234Z,100596.38
2023-02-11T08:24:03.507Z,100601.00
2023-02-11T08:26:34.713Z,100599.66
2023-02-11T08:29:08.605Z,100595.28
2023-02-11T08:31:40.814Z,100595.75
2023-02-11T08:34:09.986Z,100598.63
2023-02-11T08:36:39.571Z,100590.13
2023-02-11T08:39:19.556Z,100591.75
2023-02-11T08:41:51.503Z,100589.19
2023-02-11T08:44:20.929Z,100586.91
2023-02-11T08:46:49.656Z,100585.72
2023-02-11T08:49:17.937Z,100576.00
2023-02-11T08:51:46.464Z,100569.53
2023-02-11T08:54:14.526Z,100575.94
2023-02-11T08:56:42.304Z,100565.59
2023-02-11T08:59:15.476Z,100571.56
2023-02-11T09:01:44.262Z,100575.91
2023-02-11T09:04:12.053Z,100574.44
2023-02-11T09:06:39.951Z,100560.69
2023-02-11T09:09:13.639Z,100565.34
2023-02-11T09:11:43.934Z,100564.97
2023-02-11T09:14:23.375Z,100568.41
2023-02-11T09:16:51.932Z,100550.13
2023-02-11T09:19:20.082Z,100561.66
2023-02-11T09:21:47.594Z,100567.56
2023-02-11T09:24:15.578Z,100561.25
2023-02-11T09:26:43.865Z,100548.25
2023-02-11T09:29:11.399Z,100551.19
2023-02-11T09:31:39.055Z,100555.94
2023-02-11T09:34:06.955Z,100545.16
2023-02-11T09:36:40.668Z,100553.22
2023-02-11T09:39:20.261Z,100547.00
2023-02-11T09:42:06.417Z,100548.53
2023-02-11T09:44:37.010Z,100546.78
2023-02-11T09:47:28.600Z,100547.47
2023-02-11T09:50:11.376Z,100544.34
2023-02-11T09:53:13.212Z,100537.03
2023-02-11T09:55:46.211Z,100534.81
2023-02-11T09:58:13.491Z,100536.44
2023-02-11T10:00:50.649Z,100536.09
2023-02-11T10:03:42.635Z,100525.91
2023-02-11T10:06:38.454Z,100528.84
2023-02-11T10:09:37.663Z,100520.81
2023-02-11T10:12:37.976Z,100527.28
2023-02-11T10:15:21.876Z,100509.78
2023-02-11T10:18:08.408Z,100498.91
2023-02-11T10:21:06.782Z,100495.38
2023-02-11T10:23:39.493Z,100492.34
2023-02-11T10:26:16.665Z,100491.44
2023-02-11T10:28:51.776Z,100500.06
2023-02-11T10:31:29.166Z,100495.03
2023-02-11T10:34:10.504Z,100485.25
2023-02-11T10:36:42.933Z,100484.81
2023-02-11T10:39:21.177Z,100480.56
2023-02-11T10:41:59.682Z,100475.81
2023-02-11T10:44:31.829Z,100481.13
2023-02-11T10:47:12.844Z,100475.41
2023-02-11T10:49:45.527Z,100467.19
2023-02-11T10:52:27.962Z,100462.63
2023-02-11T10:55:10.511Z,100455.63
2023-02-11T10:58:03.066Z,100450.09
2023-02-11T11:00:42.190Z,100442.97
2023-02-11T11:03:26.021Z,100442.09
2023-02-11T11:06:02.024Z,100424.19
2023-02-11T11:08:51.635Z,100431.16
2023-02-11T11:11:23.026Z,100423.41
2023-02-11T11:13:53.349Z,100425.09
2023-02-11T11:16:25.041Z,100416.28
2023-02-11T11:19:08.892Z,100419.34
2023-02-11T11:21:48.055Z,100416.50
2023-02-11T11:24:46.678Z,100399.59
2023-02-11T11:27:25.891Z,100393.66
2023-02-11T11:29:56.415Z,100392.88
2023-02-11T11:32:27.168Z,100392.47
2023-02-11T11:35:08.489Z,100393.09
2023-02-11T11:37:38.914Z,100386.38
2023-02-11T11:40:15.735Z,100375.75
2023-02-11T11:42:43.985Z,100381.19
2023-02-11T11:45:20.044Z,100373.34
2023-02-11T11:48:03.072Z,100372.06
2023-02-11T11:50:50.334Z,100374.28
2023-02-11T11:53:41.733Z,100360.50
2023-02-11T11:56:16.510Z,100366.00
2023-02-11T11:58:44.353Z,100355.41
2023-02-11T12:01:46.192Z,100347.47
2023-02-11T12:05:00.006Z,100348.22
2023-02-11T12:07:45.773Z,100348.72
2023-02-11T12:10:26.543Z,100347.78
2023-02-11T12:13:20.056Z,100347.66
2023-02-11T12:16:13.930Z,100341.72
2023-02-11T12:19:24.523Z,100333.78
2023-02-11T12:22:17.988Z,100336.00
2023-02-11T12:25:01.147Z,100328.78
2023-02-11T12:27:50.514Z,100323.69
2023-02-11T12:30:31.854Z,100315.69
2023-02-11T12:33:21.362Z,100299.22
2023-02-11T12:36:43.743Z,100288.72
2023-02-11T12:39:54.067Z,100281.56
2023-02-11T12:42:57.149Z,100281.81
2023-02-11T12:45:59.240Z,100281.88
2023-02-11T12:48:38.590Z,100280.06
2023-02-11T12:51:53.305Z,100277.00
2023-02-11T12:54:40.146Z,100270.72
2023-02-11T12:57:28.493Z,100281.19
2023-02-11T13:00:14.415Z,100279.53
2023-02-11T13:03:07.156Z,100270.75
2023-02-11T13:05:49.552Z,100267.25
2023-02-11T13:08:43.287Z,100267.41
2023-02-11T13:11:24.489Z,100265.41
2023-02-11T13:14:12.554Z,100261.69
2023-02-11T13:16:47.727Z,100265.38
2023-02-11T13:19:50.220Z,100260.69
2023-02-11T13:22:29.822Z,100259.59
2023-02-11T13:25:22.626Z,100261.53
2023-02-11T13:28:11.207Z,100256.94
2023-02-11T13:30:46.965Z,100260.66
2023-02-11T13:33:34.747Z,100258.13
2023-02-11T13:36:04.478Z,100264.00
2023-02-11T13:38:33.241Z,100262.38
2023-02-11T13:41:21.138Z,100255.00
2023-02-11T13:44:22.620Z,100265.66
2023-02-11T13:47:04.758Z,100257.91
2023-02-11T13:49:33.742Z,100255.94
2023-02-11T13:52:05.935Z,100250.41
2023-02-11T13:54:39.769Z,100251.28
2023-02-11T13:57:37.947Z,100249.59
2023-02-11T14:00:27.997Z,100247.31
2023-02-11T14:03:31.977Z,100253.78
2023-02-11T14:06:26.978Z,100246.59
2023-02-11T14:09:36.697Z,100247.34
2023-02-11T14:12:24.900Z,100244.25
2023-02-11T14:15:10.928Z,100231.28
2023-02-11T14:17:38.153Z,100233.00
2023-02-11T14:20:33.265Z,100234.91
2023-02-11T14:23:00.842Z,100228.72
2023-02-11T14:25:28.170Z,100228.16
2023-02-11T14:28:07.441Z,100226.50
2023-02-11T14:31:16.178Z,100231.47
2023-02-11T14:34:03.693Z,100232.63
2023-02-11T14:36:46.455Z,100232.72
2023-02-11T14:39:25.406Z,100238.44
2023-02-11T14:41:52.843Z,100236.28
2023-02-11T14:44:24.524Z,100225.59
2023-02-11T14:46:53.737Z,100228.59
2023-02-11T14:49:28.671Z,100218.53
2023-02-11T14:52:00.467Z,100223.94
2023-02-11T14:54:28.889Z,100225.59
2023-02-11T14:57:07.219Z,100217.00
2023-02-11T14:59:35.008Z,100213.66
2023-02-11T15:02:02.237Z,100214.72
2023-02-11T15:04:34.501Z,100204.16
2023-02-11T15:07:07.032Z,100204.94
2023-02-11T15:09:39.096Z,100212.94
2023-02-11T15:12:16.310Z,100204.94
2023-02-11T15:14:48.439Z,100197.28
2023-02-11T15:17:21.157Z,100209.69
2023-02-11T15:19:53.235Z,100203.47
2023-02-11T15:22:25.971Z,100199.94
2023-02-11T15:25:08.628Z,100201.78
2023-02-11T15:27:45.744Z,100194.09
2023-02-11T15:30:21.939Z,100192.19
2023-02-11T15:33:00.561Z,100195.56
2023-02-11T15:35:31.307Z,100191.34
2023-02-11T15:37:59.551Z,100204.00
2023-02-11T15:40:30.108Z,100203.84
2023-02-11T15:43:02.527Z,100209.59
2023-02-11T15:45:32.449Z,100208.50
2023-02-11T15:48:10.649Z,100199.94
2023-02-11T15:50:40.705Z,100200.47
2023-02-11T15:53:16.796Z,100202.69
2023-02-11T15:55:44.074Z,100209.25
2023-02-11T15:58:11.732Z,100217.22
2023-02-11T16:00:50.361Z,100218.72
2023-02-11T16:03:28.715Z,100210.22
2023-02-11T16:05:56.546Z,100204.56
2023-02-11T16:08:25.548Z,100206.59
2023-02-11T16:10:58.294Z,100207.59
2023-02-11T16:13:26.628Z,100208.47
2023-02-11T16:15:58.544Z,100213.28
2023-02-11T16:18:47.163Z,100226.41
2023-02-11T16:21:21.498Z,100216.28
2023-02-11T16:23:51.603Z,100218.00
2023-02-11T16:26:39.410Z,100210.38
2023-02-11T16:29:15.648Z,100216.59
2023-02-11T16:31:45.667Z,100211.63
2023-02-11T16:34:26.166Z,100219.91
2023-02-11T16:36:53.422Z,100217.59
2023-02-11T16:39:22.481Z,100210.28
2023-02-11T16:41:51.178Z,100219.63
2023-02-11T16:44:18.755Z,100222.84
2023-02-11T16:46:46.050Z,100219.09
2023-02-11T16:49:18.448Z,100216.84
2023-02-11T16:51:48.824Z,100223.03
2023-02-11T16:54:17.968Z,100214.66
2023-02-11T16:56:45.208Z,100218.91
2023-02-11T16:59:12.501Z,100213.66
2023-02-11T17:01:40.779Z,100209.84
2023-02-11T17:04:14.750Z,100212.19
2023-02-11T17:06:41.962Z,100206.09
2023-02-11T17:09:24.472Z,100210.41
2023-02-11T17:11:52.420Z,100214.84
2023-02-11T17:14:20.347Z,100218.50
2023-02-11T17:16:48.156Z,100212.53
2023-02-11T17:19:19.642Z,100220.31
2023-02-11T17:21:49.419Z,100211.53
2023-02-11T17:24:17.452Z,100208.19
2023-02-11T17:26:46.115Z,100203.16
2023-02-11T17:29:15.735Z,100201.72
2023-02-11T17:31:43.106Z,100207.91
2023-02-11T17:34:11.147Z,100207.50
2023-02-11T17:36:38.542Z,100205.75
2023-02-11T17:39:08.077Z,100211.94
2023-02-11T17:41:37.846Z,100203.56
2023-02-11T17:44:06.543Z,100208.69
2023-02-11T17:46:36.880Z,100209.25
2023-02-11T17:49:04.716Z,100207.31
2023-02-11T17:51:34.994Z,100196.22
2023-02-11T17:54:06.454Z,100190.41
2023-02-11T17:56:35.898Z,100206.81
2023-02-11T17:59:04.047Z,100204.31
2023-02-11T18:01:32.790Z,100201.53
2023-02-11T18:04:00.806Z,100193.03
2023-02-11T18:06:31.589Z,100181.41
2023-02-11T18:08:59.848Z,100182.09
2023-02-11T18:11:27.967Z,100186.94
2023-02-11T18:13:55.177Z,100176.97
2023-02-11T18:16:24.605Z,100168.50
2023-02-11T18:18:51.917Z,100167.91
2023-02-11T18:21:21.373Z,100175.84
2023-02-11T18:23:49.773Z,100175.41
2023-02-11T18:26:19.333Z,100162.25
2023-02-11T18:28:46.652Z,100165.88
2023-02-11T18:31:14.705Z,100167.53
2023-02-11T18:33:42.905Z,100170.88
2023-02-11T18:36:13.380Z,100176.44
2023-02-11T18:38:41.750Z,100169.25
2023-02-11T18:41:09.100Z,100171.75
2023-02-11T18:43:36.793Z,100171.38
2023-02-11T18:46:09.224Z,100176.28
2023-02-11T18:48:37.110Z,100182.09
2023-02-11T18:51:12.488Z,100176.97
2023-02-11T19:16:50.708Z,100183.06
2023-02-11T19:19:19.331Z,100186.63
2023-02-11T19:21:47.565Z,100192.66
2023-02-11T19:24:19.834Z,100184.44
2023-02-11T19:26:49.633Z,100188.00
2023-02-11T19:29:18.011Z,100195.81
2023-02-11T19:31:45.843Z,100182.25
2023-02-11T19:34:16.486Z,100187.16
2023-02-11T19:36:44.037Z,100183.75
2023-02-11T19:39:12.012Z,100178.63
2023-02-11T19:41:39.974Z,100172.81
2023-02-11T19:44:09.548Z,100168.50
2023-02-11T19:46:40.868Z,100158.72
2023-02-11T19:49:10.013Z,100154.63
2023-02-11T19:51:39.301Z,100162.41
2023-02-11T19:54:07.847Z,100154.59
2023-02-11T19:56:35.264Z,100150.13
2023-02-11T19:59:03.771Z,100149.31
2023-02-11T20:01:31.257Z,100158.44
2023-02-11T20:03:58.685Z,100154.66
2023-02-11T20:06:30.423Z,100160.91
2023-02-11T20:09:05.409Z,100155.16
2023-02-11T20:11:34.592Z,100157.00
2023-02-11T20:14:02.407Z,100167.59
2023-02-11T20:16:46.878Z,100156.91
2023-02-11T20:19:21.477Z,100159.09
2023-02-11T20:21:55.834Z,100157.13
2023-02-11T20:24:25.253Z,100156.09
2023-02-11T20:26:56.320Z,100154.34
2023-02-11T20:29:25.480Z,100154.28
2023-02-11T20:31:54.329Z,100153.41
2023-02-11T20:34:22.213Z,100149.97
2023-02-11T20:36:52.895Z,100146.44
2023-02-11T20:39:22.830Z,100146.13
2023-02-11T20:41:51.840Z,100139.34
2023-02-11T20:44:21.803Z,100131.94
2023-02-11T20:46:50.488Z,100130.03
2023-02-11T20:49:20.692Z,100134.22
2023-02-11T20:51:49.251Z,100131.53
2023-02-11T20:54:19.023Z,100131.19
2023-02-11T20:56:48.369Z,100129.81
2023-02-11T20:59:18.204Z,100129.69
2023-02-11T21:01:50.042Z,100111.47
2023-02-11T21:04:22.265Z,100099.16
2023-02-11T21:06:54.350Z,100102.88
2023-02-11T21:09:26.616Z,100100.50
2023-02-11T21:11:55.385Z,100097.34
2023-02-11T21:14:24.679Z,100087.50
2023-02-11T21:16:52.658Z,100085.25
2023-02-11T21:19:20.377Z,100088.28
2023-02-11T21:21:47.956Z,100087.06
2023-02-11T21:24:15.403Z,100083.28
2023-02-11T21:26:42.983Z,100083.88
2023-02-11T21:29:11.880Z,100080.25
2023-02-11T21:31:40.037Z,100085.91
2023-02-11T21:34:07.943Z,100084.94
2023-02-11T21:36:35.610Z,100082.97
2023-02-11T21:39:04.103Z,100083.56
2023-02-11T21:41:32.087Z,100072.19
2023-02-11T21:43:59.584Z,100073.56
2023-02-11T21:46:27.447Z,100071.50
2023-02-11T21:48:54.931Z,100070.34
2023-02-11T21:51:26.091Z,100059.81
2023-02-11T21:54:01.139Z,100065.59
2023-02-11T21:56:31.469Z,100053.34
2023-02-11T21:59:00.405Z,100050.44
2023-02-11T22:01:32.091Z,100057.81
2023-02-11T22:04:00.142Z,100043.91
2023-02-11T22:06:32.033Z,100047.88
2023-02-11T22:09:06.931Z,100046.81
2023-02-11T22:11:34.997Z,100044.97
2023-02-11T22:14:02.860Z,100038.03
2023-02-11T22:16:31.060Z,100030.78
2023-02-11T22:18:59.054Z,100032.94
2023-02-11T22:21:27.084Z,100037.72
2023-02-11T22:23:56.107Z,100044.72
2023-02-11T22:26:26.364Z,100046.47
2023-02-11T22:28:55.071Z,100042.63
2023-02-11T22:31:28.824Z,100044.88
2023-02-11T22:33:57.765Z,100037.47
2023-02-11T22:36:32.380Z,100040.44
2023-02-11T22:39:03.025Z,100038.41
2023-02-11T22:41:31.475Z,100044.97
2023-02-11T22:43:58.947Z,100043.16
2023-02-11T22:46:26.606Z,100051.63
2023-02-11T22:48:54.010Z,100048.94
2023-02-11T22:51:25.718Z,100040.28
2023-02-11T22:53:59.991Z,100031.75
2023-02-11T22:56:29.519Z,100037.72
2023-02-11T22:59:10.376Z,100030.09
2023-02-11T23:01:38.587Z,100036.31
2023-02-11T23:04:08.647Z,100038.00
2023-02-11T23:06:36.065Z,100038.06
2023-02-11T23:09:06.151Z,100036.31
2023-02-11T23:11:35.353Z,100028.59
2023-02-11T23:14:04.184Z,100032.28
2023-02-11T23:16:34.715Z,100029.25
2023-02-11T23:19:07.883Z,100021.56
2023-02-11T23:21:38.536Z,100026.91
2023-02-11T23:24:13.350Z,100021.19
2023-02-11T23:26:42.923Z,100021.34
2023-02-11T23:29:11.839Z,100015.56
2023-02-11T23:31:43.510Z,100013.97
2023-02-11T23:34:11.300Z,100012.47
2023-02-11T23:36:38.930Z,100007.53
2023-02-11T23:39:06.424Z,100005.03
2023-02-11T23:41:33.843Z,100006.03
2023-02-11T23:44:01.253Z,100003.28
2023-02-11T23:46:28.932Z,100009.38
2023-02-11T23:48:56.617Z,100004.38
2023-02-11T23:51:24.280Z,100011.16
2023-02-11T23:53:52.754Z,100001.56
2023-02-11T23:56:24.684Z,100002.03
2023-02-11T23:58:56.175Z,100001.69
